createdAt,value
2018-12-12T00:01:56.805Z,46.50
2018-12-12T00:04:22.759Z,46.50
2018-12-12T00:06:48.579Z,46.60
2018-12-12T00:09:14.395Z,46.60
2018-12-12T00:11:40.217Z,46.50
2018-12-12T00:14:06.026Z,46.40
2018-12-12T00:16:31.849Z,46.40
2018-12-12T00:18:58.087Z,46.40
2018-12-12T00:21:24.312Z,46.40
2018-12-12T00:23:50.526Z,46.50
2018-12-12T00:26:16.778Z,46.60
2018-12-12T00:28:42.976Z,46.60
2018-12-12T00:31:08.799Z,46.50
2018-12-12T00:33:34.622Z,46.60
2018-12-12T00:36:04.144Z,46.50
2018-12-12T00:38:30.405Z,46.60
2018-12-12T00:40:56.572Z,46.60
2018-12-12T00:43:22.393Z,46.50
2018-12-12T00:45:48.209Z,47.10
2018-12-12T00:48:14.029Z,47.10
2018-12-12T00:50:39.837Z,46.50
2018-12-12T00:53:05.670Z,47.10
2018-12-12T00:55:31.481Z,46.50
2018-12-12T00:57:57.301Z,46.60
2018-12-12T01:00:23.112Z,46.60
2018-12-12T01:02:48.948Z,46.50
2018-12-12T01:05:15.167Z,46.50
2018-12-12T01:07:40.989Z,46.60
2018-12-12T01:10:06.801Z,46.50
2018-12-12T01:12:33.030Z,46.50
2018-12-12T01:14:58.847Z,46.50
2018-12-12T01:17:24.667Z,46.40
2018-12-12T01:19:50.479Z,46.60
2018-12-12T01:22:16.298Z,46.40
2018-12-12T01:24:42.120Z,46.40
2018-12-12T01:27:07.944Z,46.60
2018-12-12T01:29:33.748Z,46.70
2018-12-12T01:32:04.078Z,46.60
2018-12-12T01:34:29.889Z,46.60
2018-12-12T01:36:55.700Z,46.60
2018-12-12T01:39:21.550Z,46.70
2018-12-12T01:41:47.762Z,46.70
2018-12-12T01:44:13.584Z,46.60
2018-12-12T01:46:39.796Z,46.50
2018-12-12T01:49:05.617Z,46.50
2018-12-12T01:51:31.454Z,46.40
2018-12-12T01:53:57.669Z,46.30
2018-12-12T01:56:23.485Z,46.30
2018-12-12T01:58:49.294Z,46.30
2018-12-12T02:01:15.123Z,46.30
2018-12-12T02:03:40.945Z,46.20
2018-12-12T02:06:06.754Z,46.30
2018-12-12T02:08:32.981Z,46.40
2018-12-12T02:10:58.798Z,46.20
2018-12-12T02:13:25.024Z,46.40
2018-12-12T02:15:50.844Z,46.50
2018-12-12T02:18:17.072Z,46.30
2018-12-12T02:20:42.898Z,47.10
2018-12-12T02:23:08.696Z,46.50
2018-12-12T02:25:34.545Z,46.50
2018-12-12T02:28:00.768Z,46.50
2018-12-12T02:30:26.972Z,46.50
2018-12-12T02:32:52.789Z,46.50
2018-12-12T02:35:18.605Z,46.60
2018-12-12T02:37:44.441Z,46.50
2018-12-12T02:40:10.671Z,46.50
2018-12-12T02:42:36.886Z,46.40
2018-12-12T02:45:02.716Z,46.40
2018-12-12T02:47:28.939Z,46.50
2018-12-12T02:49:54.772Z,46.40
2018-12-12T02:52:20.980Z,46.40
2018-12-12T02:54:46.795Z,46.40
2018-12-12T02:57:12.610Z,46.60
2018-12-12T02:59:38.429Z,46.60
2018-12-12T03:02:04.246Z,46.50
2018-12-12T03:04:30.063Z,46.30
2018-12-12T03:06:55.882Z,46.40
2018-12-12T03:09:21.698Z,46.40
2018-12-12T03:11:47.517Z,46.40
2018-12-12T03:14:13.336Z,46.30
2018-12-12T03:16:39.149Z,47.00
2018-12-12T03:19:04.989Z,46.30
2018-12-12T03:21:30.802Z,46.40
2018-12-12T03:23:57.017Z,46.40
2018-12-12T03:26:22.828Z,46.40
2018-12-12T03:28:48.654Z,46.90
2018-12-12T03:31:14.477Z,46.30
2018-12-12T03:33:40.297Z,46.40
2018-12-12T03:36:06.520Z,46.40
2018-12-12T03:38:32.341Z,46.30
2018-12-12T03:40:58.163Z,46.50
2018-12-12T03:43:24.186Z,46.40
2018-12-12T03:45:50.238Z,46.50
2018-12-12T03:48:17.656Z,46.50
2018-12-12T03:50:43.470Z,46.40
2018-12-12T03:53:09.290Z,46.60
2018-12-12T03:55:35.114Z,46.70
2018-12-12T03:58:04.214Z,46.50
2018-12-12T04:00:30.426Z,46.40
2018-12-12T04:02:56.241Z,46.60
2018-12-12T04:05:22.057Z,46.60
2018-12-12T04:07:52.402Z,46.50
2018-12-12T04:10:18.618Z,46.50
2018-12-12T04:12:44.437Z,46.40
2018-12-12T04:15:10.249Z,46.60
2018-12-12T04:17:36.093Z,46.40
2018-12-12T04:20:02.717Z,46.70
2018-12-12T04:22:28.941Z,46.60
2018-12-12T04:24:55.164Z,46.60
2018-12-12T04:27:21.422Z,46.70
2018-12-12T04:29:48.029Z,46.40
2018-12-12T04:32:14.244Z,46.40
2018-12-12T04:34:41.702Z,46.40
2018-12-12T04:37:07.941Z,46.40
2018-12-12T04:39:34.175Z,46.50
2018-12-12T04:42:00.410Z,46.30
2018-12-12T04:44:26.618Z,46.40
2018-12-12T04:46:52.422Z,46.50
2018-12-12T04:49:22.372Z,46.30
2018-12-12T04:51:48.577Z,46.40
2018-12-12T04:54:14.400Z,46.30
2018-12-12T04:56:40.217Z,46.30
2018-12-12T04:59:06.439Z,46.20
2018-12-12T05:01:32.257Z,46.10
2018-12-12T05:03:58.070Z,46.20
2018-12-12T05:06:23.892Z,46.30
2018-12-12T05:08:49.710Z,46.20
2018-12-12T05:11:15.532Z,46.40
2018-12-12T05:13:41.341Z,46.40
2018-12-12T05:16:07.160Z,46.30
2018-12-12T05:18:32.977Z,46.30
2018-12-12T05:20:58.798Z,46.40
2018-12-12T05:23:24.612Z,46.50
2018-12-12T05:25:50.452Z,46.30
2018-12-12T05:28:16.668Z,46.40
2018-12-12T05:30:42.889Z,46.40
2018-12-12T05:33:08.713Z,46.20
2018-12-12T05:35:34.941Z,46.20
2018-12-12T05:38:00.749Z,46.30
2018-12-12T05:40:26.561Z,46.30
2018-12-12T05:42:52.383Z,46.40
2018-12-12T05:45:18.205Z,46.30
2018-12-12T05:47:44.023Z,46.40
2018-12-12T05:50:09.849Z,46.40
2018-12-12T05:52:36.072Z,46.50
2018-12-12T05:55:01.880Z,46.20
2018-12-12T05:57:27.693Z,46.30
2018-12-12T05:59:53.490Z,46.80
2018-12-12T06:02:19.315Z,46.30
2018-12-12T06:04:45.147Z,46.30
2018-12-12T06:07:10.973Z,46.20
2018-12-12T06:09:36.794Z,46.30
2018-12-12T06:12:02.597Z,46.30
2018-12-12T06:14:28.426Z,46.30
2018-12-12T06:16:54.249Z,46.20
2018-12-12T06:19:20.069Z,46.30
2018-12-12T06:21:46.298Z,46.40
2018-12-12T06:24:12.513Z,46.40
2018-12-12T06:26:38.334Z,46.50
2018-12-12T06:29:04.173Z,46.50
2018-12-12T06:31:30.385Z,46.50
2018-12-12T06:33:56.617Z,46.60
2018-12-12T06:36:22.824Z,46.50
2018-12-12T06:38:48.648Z,46.40
2018-12-12T06:41:14.460Z,46.50
2018-12-12T06:43:40.295Z,46.70
2018-12-12T06:46:06.508Z,46.40
2018-12-12T06:48:32.335Z,46.30
2018-12-12T06:50:58.145Z,46.90
2018-12-12T06:53:23.959Z,46.20
2018-12-12T06:55:50.242Z,46.30
2018-12-12T06:58:16.429Z,46.20
2018-12-12T07:00:42.644Z,46.20
2018-12-12T07:03:08.473Z,46.30
2018-12-12T07:05:34.703Z,46.50
2018-12-12T07:08:00.922Z,46.30
2018-12-12T07:10:27.156Z,46.30
2018-12-12T07:12:53.379Z,46.50
2018-12-12T07:15:19.602Z,47.00
2018-12-12T07:17:45.419Z,46.20
2018-12-12T07:20:11.657Z,46.20
2018-12-12T07:22:37.891Z,46.30
2018-12-12T07:25:04.112Z,46.40
2018-12-12T07:27:30.331Z,46.40
2018-12-12T07:29:56.761Z,46.30
2018-12-12T07:32:26.058Z,46.20
2018-12-12T07:34:49.364Z,46.30
2018-12-12T07:37:15.236Z,46.30
2018-12-12T07:39:41.057Z,46.50
2018-12-12T07:42:06.869Z,46.60
2018-12-12T07:44:32.695Z,46.50
2018-12-12T07:46:58.512Z,46.40
2018-12-12T07:49:24.323Z,46.40
2018-12-12T07:51:50.157Z,46.50
2018-12-12T07:54:16.377Z,46.50
2018-12-12T07:56:42.618Z,46.50
2018-12-12T07:59:08.826Z,46.30
2018-12-12T08:01:34.637Z,46.30
2018-12-12T08:04:00.456Z,46.30
2018-12-12T08:06:26.286Z,46.00
2018-12-12T08:08:52.529Z,46.00
2018-12-12T08:11:18.729Z,46.00
2018-12-12T08:13:46.324Z,46.10
2018-12-12T08:16:12.414Z,46.20
2018-12-12T08:18:38.242Z,46.30
2018-12-12T08:21:04.466Z,46.40
2018-12-12T08:23:30.284Z,46.40
2018-12-12T08:25:56.097Z,46.40
2018-12-12T08:28:21.930Z,46.90
2018-12-12T08:30:48.146Z,46.50
2018-12-12T08:33:15.023Z,46.30
2018-12-12T08:35:40.597Z,46.30
2018-12-12T08:38:06.415Z,46.20
2018-12-12T08:40:32.233Z,46.40
2018-12-12T08:42:58.045Z,46.40
2018-12-12T08:45:23.861Z,46.50
2018-12-12T08:47:49.678Z,47.10
2018-12-12T08:50:15.497Z,46.40
2018-12-12T08:52:41.327Z,46.50
2018-12-12T08:55:07.553Z,47.00
2018-12-12T08:57:33.776Z,46.30
2018-12-12T08:59:59.597Z,46.20
2018-12-12T09:02:25.823Z,46.10
2018-12-12T09:04:51.639Z,46.10
2018-12-12T09:07:17.864Z,46.20
2018-12-12T09:09:43.684Z,46.30
2018-12-12T09:12:09.492Z,46.10
2018-12-12T09:14:35.313Z,46.30
2018-12-12T09:17:01.136Z,46.20
2018-12-12T09:19:26.965Z,46.10
2018-12-12T09:21:53.188Z,46.40
2018-12-12T09:24:19.413Z,46.20
2018-12-12T09:26:45.238Z,46.10
2018-12-12T09:29:11.464Z,45.90
2018-12-12T09:31:37.689Z,46.00
2018-12-12T09:34:03.910Z,46.30
2018-12-12T09:36:30.140Z,46.10
2018-12-12T09:38:55.954Z,46.10
2018-12-12T09:41:21.785Z,46.00
2018-12-12T09:43:47.998Z,46.10
2018-12-12T09:46:13.824Z,46.20
2018-12-12T09:48:40.456Z,46.20
2018-12-12T09:51:07.492Z,46.20
2018-12-12T09:53:32.906Z,46.30
2018-12-12T09:56:04.454Z,46.30
2018-12-12T09:58:30.275Z,46.30
2018-12-12T10:00:56.093Z,46.40
2018-12-12T10:03:22.313Z,46.30
2018-12-12T10:05:48.133Z,46.20
2018-12-12T10:08:13.969Z,46.00
2018-12-12T10:10:40.225Z,46.30
2018-12-12T10:13:06.813Z,46.20
2018-12-12T10:15:32.646Z,46.20
2018-12-12T10:17:58.865Z,46.20
2018-12-12T10:20:24.681Z,46.20
2018-12-12T10:22:50.496Z,46.20
2018-12-12T10:25:16.318Z,46.10
2018-12-12T10:27:42.136Z,46.00
2018-12-12T10:30:07.970Z,46.00
2018-12-12T10:32:34.177Z,46.30
2018-12-12T10:34:59.994Z,46.40
2018-12-12T10:37:25.820Z,46.30
2018-12-12T10:39:52.042Z,46.30
2018-12-12T10:42:17.886Z,46.20
2018-12-12T10:44:44.086Z,46.20
2018-12-12T10:47:09.916Z,46.10
2018-12-12T10:49:35.758Z,46.10
2018-12-12T10:52:02.358Z,46.10
2018-12-12T10:54:28.409Z,46.10
2018-12-12T10:56:54.411Z,46.10
2018-12-12T10:59:20.629Z,46.10
2018-12-12T11:01:46.444Z,46.10
2018-12-12T11:04:12.674Z,46.60
2018-12-12T11:06:38.489Z,46.20
2018-12-12T11:09:04.429Z,46.20
2018-12-12T11:11:30.533Z,46.10
2018-12-12T11:13:56.352Z,46.10
2018-12-12T11:16:22.186Z,46.10
2018-12-12T11:18:48.402Z,46.20
2018-12-12T11:21:14.237Z,46.00
2018-12-12T11:23:40.463Z,46.20
2018-12-12T11:26:06.688Z,46.30
2018-12-12T11:28:32.486Z,46.30
2018-12-12T11:30:58.732Z,46.20
2018-12-12T11:33:24.845Z,46.30
2018-12-12T11:35:50.760Z,46.10
2018-12-12T11:38:16.586Z,46.20
2018-12-12T11:40:42.808Z,46.30
2018-12-12T11:43:08.655Z,46.40
2018-12-12T11:45:35.274Z,46.80
2018-12-12T11:48:01.487Z,46.40
2018-12-12T11:50:27.312Z,46.40
2018-12-12T11:52:53.960Z,47.10
2018-12-12T11:55:20.182Z,46.30
2018-12-12T11:57:46.213Z,46.50
2018-12-12T12:00:12.218Z,46.50
2018-12-12T12:02:38.033Z,46.30
2018-12-12T12:05:03.845Z,46.20
2018-12-12T12:07:29.682Z,46.30
2018-12-12T12:09:55.909Z,46.30
2018-12-12T12:12:22.141Z,46.10
2018-12-12T12:14:48.358Z,46.20
2018-12-12T12:17:14.573Z,46.20
2018-12-12T12:19:40.394Z,46.20
2018-12-12T12:22:06.620Z,46.40
2018-12-12T12:24:32.441Z,46.50
2018-12-12T12:26:58.664Z,46.50
2018-12-12T12:29:24.493Z,46.50
2018-12-12T12:31:50.716Z,46.50
2018-12-12T12:34:16.542Z,46.40
2018-12-12T12:36:42.765Z,46.30
2018-12-12T12:39:08.577Z,46.40
2018-12-12T12:41:34.401Z,46.40
2018-12-12T12:44:00.214Z,46.50
2018-12-12T12:46:26.032Z,46.60
2018-12-12T12:48:51.851Z,46.60
2018-12-12T12:51:17.673Z,46.70
2018-12-12T12:53:43.893Z,46.60
2018-12-12T12:56:09.709Z,46.30
2018-12-12T12:58:35.543Z,46.20
2018-12-12T13:01:01.753Z,46.10
2018-12-12T13:03:27.569Z,46.20
2018-12-12T13:05:53.385Z,46.40
2018-12-12T13:08:19.206Z,46.80
2018-12-12T13:10:45.029Z,46.30
2018-12-12T13:13:10.910Z,46.50
2018-12-12T13:15:37.434Z,46.50
2018-12-12T13:18:03.313Z,46.50
2018-12-12T13:20:29.529Z,46.50
2018-12-12T13:22:55.764Z,46.60
2018-12-12T13:25:21.982Z,46.40
2018-12-12T13:27:47.827Z,46.50
2018-12-12T13:30:14.445Z,46.90
2018-12-12T13:32:40.673Z,46.30
2018-12-12T13:35:06.896Z,46.30
2018-12-12T13:37:33.129Z,46.40
2018-12-12T13:39:59.349Z,46.30
2018-12-12T13:42:25.153Z,46.30
2018-12-12T13:44:51.004Z,46.60
2018-12-12T13:47:17.544Z,46.50
2018-12-12T13:49:43.858Z,46.40
2018-12-12T13:52:09.668Z,46.40
2018-12-12T13:54:35.486Z,46.50
2018-12-12T13:57:01.307Z,46.30
2018-12-12T13:59:27.935Z,46.30
2018-12-12T14:01:53.762Z,46.30
2018-12-12T14:04:22.753Z,46.30
2018-12-12T14:06:46.587Z,46.40
2018-12-12T14:09:12.437Z,46.40
2018-12-12T14:11:38.258Z,46.50
2018-12-12T14:14:04.070Z,46.50
2018-12-12T14:16:29.889Z,46.40
2018-12-12T14:18:55.769Z,46.50
2018-12-12T14:21:21.936Z,46.60
2018-12-12T14:23:47.753Z,46.60
2018-12-12T14:26:13.644Z,47.20
2018-12-12T14:28:39.605Z,46.60
2018-12-12T14:31:05.628Z,46.70
2018-12-12T14:33:31.851Z,46.60
2018-12-12T14:36:01.038Z,46.50
2018-12-12T14:38:24.296Z,46.60
2018-12-12T14:40:50.129Z,46.70
2018-12-12T14:43:16.365Z,46.90
2018-12-12T14:45:42.572Z,46.70
2018-12-12T14:48:08.398Z,46.60
2018-12-12T14:50:34.617Z,46.70
2018-12-12T14:53:00.432Z,46.50
2018-12-12T14:55:26.666Z,46.50
2018-12-12T14:57:52.484Z,46.60
2018-12-12T15:00:18.722Z,46.80
2018-12-12T15:02:44.945Z,47.00
2018-12-12T15:05:11.165Z,46.90
2018-12-12T15:07:38.616Z,47.00
2018-12-12T15:10:04.459Z,47.00
2018-12-12T15:12:30.659Z,47.00
2018-12-12T15:14:56.485Z,47.00
2018-12-12T15:17:22.302Z,46.80
2018-12-12T15:19:48.119Z,46.80
2018-12-12T15:22:13.942Z,47.00
2018-12-12T15:24:40.174Z,47.00
2018-12-12T15:27:06.402Z,46.90
2018-12-12T15:29:32.621Z,47.00
2018-12-12T15:31:58.442Z,46.90
2018-12-12T15:34:24.673Z,47.00
2018-12-12T15:36:50.903Z,46.90
2018-12-12T15:39:17.140Z,47.00
2018-12-12T15:41:42.973Z,46.90
2018-12-12T15:44:09.583Z,46.90
2018-12-12T15:46:35.807Z,46.90
2018-12-12T15:49:01.617Z,47.00
2018-12-12T15:51:27.440Z,47.00
2018-12-12T15:53:53.258Z,47.20
2018-12-12T15:56:19.073Z,47.00
2018-12-12T15:58:44.889Z,47.10
2018-12-12T16:01:10.716Z,47.00
2018-12-12T16:03:36.522Z,47.00
2018-12-12T16:06:04.819Z,47.20
2018-12-12T16:08:31.025Z,47.10
2018-12-12T16:10:57.249Z,47.10
2018-12-12T16:13:23.082Z,47.10
2018-12-12T16:15:48.902Z,47.00
2018-12-12T16:18:15.109Z,47.00
2018-12-12T16:20:40.947Z,47.00
2018-12-12T16:23:07.160Z,47.10
2018-12-12T16:25:32.991Z,47.10
2018-12-12T16:27:59.216Z,47.20
2018-12-12T16:30:25.444Z,47.30
2018-12-12T16:32:51.260Z,47.30
2018-12-12T16:35:17.078Z,47.10
2018-12-12T16:37:42.891Z,47.10
2018-12-12T16:40:08.705Z,47.10
2018-12-12T16:42:34.530Z,47.10
2018-12-12T16:45:00.348Z,47.10
2018-12-12T16:47:26.161Z,47.10
2018-12-12T16:49:51.974Z,47.00
2018-12-12T16:52:17.794Z,47.20
2018-12-12T16:54:43.617Z,47.00
2018-12-12T16:57:09.849Z,46.80
2018-12-12T16:59:36.065Z,46.80
2018-12-12T17:02:01.875Z,46.80
2018-12-12T17:04:27.707Z,47.30
2018-12-12T17:06:53.523Z,46.80
2018-12-12T17:09:19.334Z,46.80
2018-12-12T17:11:45.158Z,46.90
2018-12-12T17:14:10.979Z,46.90
2018-12-12T17:16:36.802Z,46.70
2018-12-12T17:19:03.019Z,46.70
2018-12-12T17:21:28.832Z,46.70
2018-12-12T17:23:54.650Z,46.80
2018-12-12T17:26:20.466Z,46.90
2018-12-12T17:28:46.295Z,47.40
2018-12-12T17:31:12.105Z,46.80
2018-12-12T17:33:37.921Z,46.90
2018-12-12T17:36:03.733Z,46.70
2018-12-12T17:38:29.569Z,46.60
2018-12-12T17:40:55.799Z,46.70
2018-12-12T17:43:22.925Z,46.80
2018-12-12T17:45:49.078Z,46.70
2018-12-12T17:48:15.292Z,46.70
2018-12-12T17:50:41.307Z,46.70
2018-12-12T17:53:07.346Z,46.80
2018-12-12T17:55:33.572Z,46.70
2018-12-12T17:57:59.780Z,46.60
2018-12-12T18:00:25.614Z,46.50
2018-12-12T18:02:51.840Z,46.50
2018-12-12T18:05:17.670Z,46.50
2018-12-12T18:07:43.893Z,46.60
2018-12-12T18:10:10.101Z,46.70
2018-12-12T18:12:35.916Z,46.70
2018-12-12T18:15:01.754Z,46.80
2018-12-12T18:17:27.554Z,46.90
2018-12-12T18:19:53.364Z,46.80
2018-12-12T18:22:19.185Z,46.90
2018-12-12T18:24:45.009Z,47.00
2018-12-12T18:27:11.226Z,47.20
2018-12-12T18:29:37.477Z,46.80
2018-12-12T18:32:03.692Z,46.60
2018-12-12T18:34:29.522Z,46.60
2018-12-12T18:36:55.734Z,46.60
2018-12-12T18:39:21.544Z,46.70
2018-12-12T18:41:47.799Z,46.90
2018-12-12T18:44:14.063Z,46.80
2018-12-12T18:46:40.277Z,46.90
2018-12-12T18:49:06.869Z,46.80
2018-12-12T18:51:32.681Z,46.80
2018-12-12T18:53:58.934Z,47.40
2018-12-12T18:56:25.345Z,47.40
2018-12-12T18:58:52.196Z,46.80
2018-12-12T19:01:18.419Z,46.70
2018-12-12T19:03:44.266Z,46.70
2018-12-12T19:06:10.838Z,46.50
2018-12-12T19:08:36.702Z,46.60
2018-12-12T19:11:02.909Z,47.30
2018-12-12T19:13:29.141Z,46.70
2018-12-12T19:15:54.968Z,46.80
2018-12-12T19:18:21.189Z,46.90
2018-12-12T19:20:46.997Z,46.70
2018-12-12T19:23:12.845Z,46.50
2018-12-12T19:25:38.653Z,46.50
2018-12-12T19:28:04.866Z,46.60
2018-12-12T19:30:30.688Z,46.50
2018-12-12T19:32:56.923Z,46.40
2018-12-12T19:35:22.744Z,46.30
2018-12-12T19:37:48.953Z,46.30
2018-12-12T19:40:14.786Z,46.40
2018-12-12T19:42:41.023Z,46.40
2018-12-12T19:45:07.243Z,46.50
2018-12-12T19:47:33.448Z,46.60
2018-12-12T19:49:59.268Z,46.50
2018-12-12T19:52:25.099Z,46.60
2018-12-12T19:54:51.208Z,46.50
2018-12-12T19:57:17.145Z,46.40
2018-12-12T19:59:43.375Z,46.30
2018-12-12T20:02:09.597Z,46.30
2018-12-12T20:04:40.774Z,46.30
2018-12-12T20:07:07.365Z,46.50
2018-12-12T20:09:33.187Z,46.40
2018-12-12T20:11:59.005Z,46.50
2018-12-12T20:14:24.822Z,46.60
2018-12-12T20:16:50.670Z,46.50
2018-12-12T20:19:16.873Z,46.50
2018-12-12T20:21:43.091Z,46.50
2018-12-12T20:24:09.317Z,46.50
2018-12-12T20:26:35.138Z,46.60
2018-12-12T20:29:01.368Z,46.50
2018-12-12T20:31:27.601Z,46.50
2018-12-12T20:33:53.823Z,46.60
2018-12-12T20:36:19.661Z,46.60
2018-12-12T20:38:45.870Z,46.70
2018-12-12T20:41:12.116Z,46.60
2018-12-12T20:43:38.319Z,46.60
2018-12-12T20:46:04.135Z,46.70
2018-12-12T20:48:29.958Z,46.50
2018-12-12T20:50:56.187Z,46.40
2018-12-12T20:53:22.401Z,46.50
2018-12-12T20:55:48.230Z,46.60
2018-12-12T20:58:14.053Z,46.50
2018-12-12T21:00:40.278Z,46.50
2018-12-12T21:03:06.514Z,46.30
2018-12-12T21:05:32.740Z,46.20
2018-12-12T21:07:58.984Z,46.50
2018-12-12T21:10:25.593Z,46.90
2018-12-12T21:12:53.282Z,46.80
2018-12-12T21:15:17.739Z,46.70
2018-12-12T21:17:43.675Z,46.70
2018-12-12T21:20:09.696Z,46.70
2018-12-12T21:22:35.927Z,46.70
2018-12-12T21:25:02.171Z,46.60
2018-12-12T21:27:28.386Z,46.60
2018-12-12T21:29:55.002Z,46.50
2018-12-12T21:32:21.245Z,46.50
2018-12-12T21:34:47.901Z,47.00
2018-12-12T21:37:14.101Z,46.60
2018-12-12T21:39:40.832Z,46.80
2018-12-12T21:42:06.973Z,46.70
2018-12-12T21:44:33.583Z,46.80
2018-12-12T21:47:00.230Z,46.60
2018-12-12T21:49:26.472Z,46.60
2018-12-12T21:51:53.112Z,46.70
2018-12-12T21:54:19.723Z,46.70
2018-12-12T21:56:45.553Z,46.60
2018-12-12T21:59:11.778Z,46.50
2018-12-12T22:01:37.998Z,46.30
2018-12-12T22:04:04.248Z,46.40
2018-12-12T22:06:30.902Z,46.60
2018-12-12T22:08:56.714Z,46.50
2018-12-12T22:11:23.321Z,46.70
2018-12-12T22:13:49.545Z,46.70
2018-12-12T22:16:15.774Z,46.80
2018-12-12T22:18:42.010Z,46.60
2018-12-12T22:21:08.022Z,46.60
2018-12-12T22:23:34.041Z,46.50
2018-12-12T22:26:00.269Z,46.60
2018-12-12T22:28:26.491Z,46.70
2018-12-12T22:30:52.725Z,46.70
2018-12-12T22:33:18.944Z,46.50
2018-12-12T22:35:45.167Z,46.40
2018-12-12T22:38:11.002Z,46.30
2018-12-12T22:40:37.223Z,46.40
2018-12-12T22:43:03.438Z,46.30
2018-12-12T22:45:29.702Z,46.20
2018-12-12T22:47:56.296Z,46.60
2018-12-12T22:50:22.118Z,46.00
2018-12-12T22:52:48.336Z,46.20
2018-12-12T22:55:14.156Z,46.40
2018-12-12T22:57:40.391Z,46.50
2018-12-12T23:00:06.213Z,46.90
2018-12-12T23:02:32.041Z,46.50
2018-12-12T23:04:58.664Z,46.60
2018-12-12T23:07:24.481Z,46.50
2018-12-12T23:09:50.722Z,46.40
2018-12-12T23:12:16.539Z,46.10
2018-12-12T23:14:42.741Z,46.40
2018-12-12T23:17:08.590Z,46.50
2018-12-12T23:19:34.788Z,46.50
2018-12-12T23:22:00.612Z,46.40
2018-12-12T23:24:26.848Z,46.50
2018-12-12T23:26:53.060Z,46.50
2018-12-12T23:29:18.872Z,46.40
2018-12-12T23:31:44.701Z,46.30
2018-12-12T23:34:10.714Z,46.40
2018-12-12T23:36:36.729Z,46.50
2018-12-12T23:39:02.551Z,46.70
2018-12-12T23:41:28.392Z,46.60
2018-12-12T23:43:54.603Z,46.60
2018-12-12T23:46:20.821Z,46.60
2018-12-12T23:48:46.633Z,46.50
2018-12-12T23:51:12.448Z,46.60
2018-12-12T23:53:38.249Z,46.50
2018-12-12T23:56:04.095Z,46.50
2018-12-12T23:58:29.912Z,46.50
